Time;durP1;ratioP1;P1;durP2;ratioP2;P2;SDS_P1;SDS_P2;PMS_P1;PMS_P2;Temp;Humidity;BMP_temperature;BMP_pressure;BME280_temperature;BME280_humidity;BME280_pressure;Samples;Min_cycle;Max_cycle;Signal;HPM_P1;HPM_P2
2023/01/05 00:01:13;;;;;;;198.73;134.10;;;;;;;;;;5069782;28;20041;-68
2023/01/05 00:04:17;;;;;;;209.00;136.25;;;;;;;;;;5070951;28;20039;-68
2023/01/05 00:07:21;;;;;;;194.50;129.10;;;10.00;99.90;;;;;;5070536;28;20051;-69
2023/01/05 00:24:03;;;;;;;188.18;123.97;;;11.10;99.90;;;;;;5070525;28;20040;-67
2023/01/05 00:27:07;;;;;;;182.25;123.38;;;;;;;;;;5070537;28;20071;-67
2023/01/05 00:30:14;;;;;;;191.00;120.78;;;9.70;99.90;;;;;;5070702;28;20038;-68
2023/01/05 00:33:18;;;;;;;178.32;119.22;;;10.20;99.90;;;;;;5070504;28;20051;-67
2023/01/05 00:36:22;;;;;;;170.05;113.20;;;;;;;;;;5070537;28;20048;-68
2023/01/05 00:39:27;;;;;;;182.85;115.45;;;;;;;;;;5070749;28;20035;-68
2023/01/05 00:42:31;;;;;;;163.60;109.68;;;;;;;;;;5073930;28;20511;-67
2023/01/05 00:45:35;;;;;;;142.60;94.85;;;;;;;;;;5073927;28;20044;-67
2023/01/05 00:48:40;;;;;;;163.05;100.15;;;;;;;;;;5073989;28;20423;-67
2023/01/05 00:51:44;;;;;;;134.40;88.07;;;9.60;99.90;;;;;;5074137;28;20044;-67
2023/01/05 00:54:48;;;;;;;139.52;93.93;;;;;;;;;;5074033;28;20052;-69
2023/01/05 00:57:52;;;;;;;147.73;88.43;;;8.50;99.90;;;;;;5073364;28;20048;-67
2023/01/05 01:00:56;;;;;;;141.45;93.45;;;;;;;;;;5072840;28;20043;-67
2023/01/05 01:04:01;;;;;;;134.68;84.57;;;;;;;;;;5072789;28;20039;-68
2023/01/05 01:07:05;;;;;;;118.03;74.97;;;;;;;;;;5072895;28;20040;-68
2023/01/05 01:10:10;;;;;;;120.85;80.18;;;10.40;99.90;;;;;;5073083;28;20056;-68
2023/01/05 01:13:15;;;;;;;116.25;76.18;;;;;;;;;;5072665;28;20059;-67
2023/01/05 01:16:19;;;;;;;123.20;77.88;;;;;;;;;;5072377;28;20048;-68
2023/01/05 01:19:25;;;;;;;123.43;78.97;;;9.60;99.90;;;;;;5072560;28;20036;-68
2023/01/05 01:22:29;;;;;;;106.65;69.88;;;;;;;;;;5073358;28;20044;-67
2023/01/05 01:25:33;;;;;;;104.78;69.55;;;;;;;;;;5073209;28;20036;-67
2023/01/05 01:28:38;;;;;;;101.05;60.72;;;;;;;;;;5073952;28;20059;-68
2023/01/05 01:31:43;;;;;;;85.55;54.20;;;9.80;99.90;;;;;;5073360;28;20401;-68
2023/01/05 01:34:47;;;;;;;94.50;59.15;;;;;;;;;;5072068;28;20059;-68
2023/01/05 01:37:51;;;;;;;89.60;58.78;;;;;;;;;;5073323;28;20036;-68
2023/01/05 01:40:55;;;;;;;83.20;54.97;;;10.10;99.90;;;;;;5072932;28;20047;-67
2023/01/05 01:44:00;;;;;;;96.10;61.10;;;;;;;;;;5072377;28;20055;-68
2023/01/05 01:47:05;;;;;;;98.10;60.42;;;;;;;;;;5072258;28;20516;-68
2023/01/05 01:50:14;;;;;;;98.15;61.67;;;9.40;99.90;;;;;;5073043;28;20049;-68
2023/01/05 01:53:41;;;;;;;96.93;63.42;;;9.50;99.90;;;;;;5071600;28;20043;-68
2023/01/05 01:56:54;;;;;;;102.55;65.75;;;9.60;99.90;;;;;;5073029;28;20056;-68
2023/01/05 02:00:00;;;;;;;95.57;59.25;;;9.70;99.90;;;;;;5072276;28;20043;-68
2023/01/05 02:03:06;;;;;;;87.07;54.90;;;8.80;99.90;;;;;;5072395;28;20067;-68
2023/01/05 02:06:10;;;;;;;96.85;56.25;;;;;;;;;;5072542;28;20491;-68
2023/01/05 02:09:14;;;;;;;99.15;61.88;;;9.60;99.90;;;;;;5072322;28;20048;-68
2023/01/05 02:12:30;;;;;;;105.55;63.05;;;9.50;99.90;;;;;;5071636;28;20051;-68
2023/01/05 02:15:50;;;;;;;96.28;57.47;;;9.50;99.90;;;;;;5072187;28;20056;-68
2023/01/05 02:19:02;;;;;;;88.22;55.83;;;9.40;99.90;;;;;;5071671;28;20036;-67
2023/01/05 02:22:13;;;;;;;90.30;56.78;;;9.80;99.90;;;;;;5072440;28;20044;-67
2023/01/05 02:25:55;;;;;;;90.00;56.83;;;9.30;99.90;;;;;;5071748;28;20040;-67
2023/01/05 02:29:16;;;;;;;95.88;59.50;;;10.10;99.90;;;;;;5066696;28;20043;-68
2023/01/05 02:32:48;;;;;;;83.60;55.28;;;9.20;99.90;;;;;;5071608;28;20491;-67
2023/01/05 02:36:08;;;;;;;89.45;56.67;;;8.80;99.90;;;;;;5071258;28;20063;-68
2023/01/05 02:39:31;;;;;;;89.90;54.40;;;9.10;99.90;;;;;;5070920;28;20036;-68
2023/01/05 02:42:36;;;;;;;;;;;9.10;99.90;;;;;;5072318;28;20438;-69
2023/01/05 02:45:40;;;;;;;90.03;54.65;;;9.20;99.90;;;;;;5071101;28;19919;-68
2023/01/05 02:48:49;;;;;;;80.57;53.20;;;9.10;99.90;;;;;;5071985;28;20047;-67
2023/01/05 02:51:56;;;;;;;78.75;50.80;;;9.10;99.90;;;;;;5070775;28;20043;-67
2023/01/05 02:55:07;;;;;;;80.57;53.20;;;8.90;99.90;;;;;;5071683;28;20511;-69
2023/01/05 02:58:40;;;;;;;85.85;53.13;;;9.90;99.90;;;;;;5070942;28;20186;-68
2023/01/05 03:01:57;;;;;;;87.03;54.17;;;9.10;99.90;;;;;;5070927;28;20051;-68
2023/01/05 03:05:13;;;;;;;86.30;52.83;;;8.90;99.90;;;;;;5070546;28;20531;-68
2023/01/05 03:08:21;;;;;;;77.53;49.20;;;7.10;99.90;;;;;;5070363;28;20042;-69
2023/01/05 03:15:23;;;;;;;88.68;50.83;;;8.90;99.90;;;;;;5070150;28;20052;-69
2023/01/05 03:18:30;;;;;;;79.10;49.25;;;9.10;99.90;;;;;;5070632;28;20059;-69
2023/01/05 03:35:33;;;;;;;71.73;43.93;;;8.10;99.90;;;;;;5070843;28;20397;-69
2023/01/05 03:38:43;;;;;;;72.30;44.75;;;8.40;99.90;;;;;;5070530;28;20262;-69
2023/01/05 03:41:47;;;;;;;72.30;41.90;;;8.40;99.90;;;;;;5070845;28;20036;-69
2023/01/05 03:44:52;;;;;;;69.50;41.70;;;8.60;99.90;;;;;;5070764;28;20048;-68
2023/01/05 03:47:56;;;;;;;67.35;40.97;;;8.80;99.90;;;;;;5070101;28;20391;-68
2023/01/05 03:51:04;;;;;;;67.07;41.58;;;8.60;99.90;;;;;;5070411;28;20047;-68
2023/01/05 03:54:09;;;;;;;69.05;43.15;;;8.50;99.90;;;;;;5070183;28;20048;-69
2023/01/05 03:57:13;;;;;;;67.80;41.33;;;8.50;99.90;;;;;;5070350;28;20047;-69
2023/01/05 04:00:19;;;;;;;74.00;43.85;;;8.70;99.90;;;;;;5070017;28;20048;-69
2023/01/05 04:03:26;;;;;;;69.10;44.35;;;;;;;;;;5070015;28;20039;-69
2023/01/05 04:06:31;;;;;;;67.00;40.30;;;8.70;99.90;;;;;;5070186;28;20388;-69
2023/01/05 04:09:36;;;;;;;73.82;39.67;;;9.00;99.90;;;;;;5070020;28;20043;-68
2023/01/05 04:12:41;;;;;;;64.55;40.08;;;;;;;;;;5069935;28;20043;-67
2023/01/05 04:15:45;;;;;;;65.60;37.25;;;7.70;99.90;;;;;;5071294;28;20052;-67
2023/01/05 04:18:50;;;;;;;61.95;39.17;;;8.60;99.90;;;;;;5074118;28;20098;-67
2023/01/05 04:21:56;;;;;;;73.78;43.20;;;8.10;99.90;;;;;;5074509;28;20039;-67
2023/01/05 04:25:01;;;;;;;76.90;43.85;;;8.50;99.90;;;;;;5073940;28;20040;-67
2023/01/05 04:28:07;;;;;;;74.00;46.28;;;7.80;99.90;;;;;;5073784;28;20071;-67
2023/01/05 04:31:13;;;;;;;67.07;39.67;;;8.40;99.90;;;;;;5073835;28;20044;-67
2023/01/05 04:34:19;;;;;;;66.90;41.92;;;8.60;99.90;;;;;;5073661;28;20118;-67
2023/01/05 04:37:26;;;;;;;61.80;38.00;;;;;;;;;;5073692;28;20507;-69
2023/01/05 04:40:30;;;;;;;59.33;37.97;;;7.30;99.90;;;;;;5073569;28;20040;-67
2023/01/05 04:43:34;;;;;;;60.50;38.03;;;8.40;99.90;;;;;;5074128;28;20048;-68
2023/01/05 04:46:39;;;;;;;59.58;38.20;;;8.30;99.90;;;;;;5073589;28;20391;-68
2023/01/05 04:49:45;;;;;;;60.08;39.17;;;8.00;99.90;;;;;;5073550;28;20043;-68
2023/01/05 04:52:50;;;;;;;59.15;38.85;;;8.00;99.90;;;;;;5074338;28;20040;-68
2023/01/05 04:55:56;;;;;;;66.65;41.72;;;;;;;;;;5073365;28;20502;-68
2023/01/05 04:59:02;;;;;;;79.15;46.80;;;;;;;;;;5072791;28;20040;-69
2023/01/05 05:02:07;;;;;;;75.90;44.03;;;7.90;99.90;;;;;;5073127;28;20048;-69
2023/01/05 05:05:11;;;;;;;69.38;43.05;;;;;;;;;;5072882;28;20056;-69
2023/01/05 05:08:16;;;;;;;64.53;39.45;;;8.80;99.90;;;;;;5072903;28;20036;-68
2023/01/05 05:11:21;;;;;;;63.33;35.88;;;8.10;99.90;;;;;;5072592;28;20511;-68
2023/01/05 05:14:26;;;;;;;63.30;35.00;;;7.70;99.90;;;;;;5072855;28;20047;-67
2023/01/05 05:17:34;;;;;;;59.35;34.45;;;7.60;99.90;;;;;;5072643;28;20047;-68
2023/01/05 05:20:42;;;;;;;62.00;38.60;;;7.40;99.90;;;;;;5072991;28;20043;-68
2023/01/05 05:23:47;;;;;;;56.20;33.13;;;7.90;99.90;;;;;;5072582;28;20056;-69
2023/01/05 05:26:51;;;;;;;53.97;34.50;;;6.30;99.90;;;;;;5072176;28;20055;-69
2023/01/05 05:29:55;;;;;;;71.50;35.35;;;8.70;99.90;;;;;;5073230;28;20047;-69
2023/01/05 05:32:59;;;;;;;62.47;34.42;;;8.00;99.90;;;;;;5073569;28;20035;-69
2023/01/05 05:36:04;;;;;;;63.22;32.28;;;7.90;99.90;;;;;;5073014;28;20055;-69
2023/01/05 05:39:13;;;;;;;56.08;30.80;;;7.80;99.90;;;;;;5073327;28;20063;-69
2023/01/05 05:42:17;;;;;;;59.78;31.38;;;8.00;99.90;;;;;;5072622;28;20403;-68
2023/01/05 05:45:21;;;;;;;51.22;30.75;;;8.50;99.90;;;;;;5073255;28;20043;-69
2023/01/05 05:48:25;;;;;;;60.03;31.52;;;7.10;99.90;;;;;;5073053;28;20043;-68
2023/01/05 05:51:30;;;;;;;55.97;31.13;;;7.90;99.90;;;;;;5072962;28;20059;-69
2023/01/05 05:54:34;;;;;;;59.03;31.08;;;8.10;99.90;;;;;;5072688;28;20051;-69
2023/01/05 05:57:38;;;;;;;49.60;31.70;;;7.70;99.90;;;;;;5072696;28;20098;-69
2023/01/05 06:00:42;;;;;;;51.53;30.48;;;;;;;;;;5072902;28;20043;-69
2023/01/05 06:03:46;;;;;;;64.05;33.30;;;7.90;99.90;;;;;;5072521;28;20043;-69
2023/01/05 06:06:50;;;;;;;56.90;30.50;;;7.80;99.90;;;;;;5072712;28;20047;-69
2023/01/05 06:09:54;;;;;;;52.13;30.58;;;;;;;;;;5072664;28;20495;-69
2023/01/05 06:12:58;;;;;;;51.83;28.85;;;9.00;99.90;;;;;;5072524;28;20046;-69
2023/01/05 06:16:02;;;;;;;50.22;30.33;;;5.20;99.90;;;;;;5071973;28;20047;-68
2023/01/05 06:19:06;;;;;;;73.07;30.85;;;;;;;;;;5072444;28;20047;-68
2023/01/05 06:22:10;;;;;;;50.95;30.15;;;8.00;99.90;;;;;;5071219;28;20048;-69
2023/01/05 06:25:14;;;;;;;52.90;29.42;;;7.70;99.90;;;;;;5071843;28;20067;-75
2023/01/05 06:28:19;;;;;;;60.38;33.47;;;;;;;;;;5071236;28;20047;-78
2023/01/05 06:31:23;;;;;;;61.20;33.42;;;8.80;99.90;;;;;;5060129;28;20414;-78
2023/01/05 06:34:27;;;;;;;59.10;33.47;;;7.90;99.90;;;;;;5071044;28;20396;-76
2023/01/05 06:37:31;;;;;;;59.25;33.80;;;;;;;;;;5072119;28;20611;-76
2023/01/05 06:40:35;;;;;;;61.05;35.53;;;7.40;99.90;;;;;;5072239;28;20447;-76
2023/01/05 06:43:39;;;;;;;92.22;45.72;;;6.10;99.90;;;;;;5071901;28;20044;-76
2023/01/05 06:46:43;;;;;;;97.28;55.30;;;7.80;99.90;;;;;;5071637;28;20051;-75
2023/01/05 06:49:47;;;;;;;96.63;55.90;;;8.20;99.90;;;;;;5071735;28;20039;-76
2023/01/05 06:52:51;;;;;;;93.25;49.58;;;8.20;99.90;;;;;;5071082;28;20051;-76
2023/01/05 06:55:55;;;;;;;88.45;49.65;;;8.20;99.90;;;;;;5071316;28;20051;-77
2023/01/05 06:58:59;;;;;;;69.20;42.17;;;8.40;99.90;;;;;;5071253;28;20055;-75
2023/01/05 07:02:03;;;;;;;62.25;34.40;;;5.40;99.90;;;;;;5071673;28;20512;-75
2023/01/05 07:05:07;;;;;;;52.17;33.17;;;8.80;99.90;;;;;;5071595;28;20044;-77
2023/01/05 07:08:11;;;;;;;57.20;29.75;;;9.80;99.90;;;;;;5071651;28;20040;-77
2023/01/05 07:11:15;;;;;;;132.82;62.58;;;8.90;99.90;;;;;;5071509;28;20051;-77
2023/01/05 07:14:19;;;;;;;177.70;88.40;;;;;;;;;;5071315;28;20060;-77
2023/01/05 07:17:24;;;;;;;173.38;81.40;;;9.20;99.90;;;;;;5071281;28;20214;-78
2023/01/05 07:20:28;;;;;;;228.90;96.75;;;9.00;99.90;;;;;;5071016;28;20040;-76
2023/01/05 07:23:32;;;;;;;140.05;71.10;;;10.00;99.90;;;;;;5071157;28;20043;-74
2023/01/05 07:26:36;;;;;;;79.57;41.65;;;9.20;99.90;;;;;;5071207;28;20043;-73
2023/01/05 07:29:40;;;;;;;65.68;33.25;;;10.20;99.90;;;;;;5071011;28;20043;-71
2023/01/05 07:32:44;;;;;;;50.20;26.73;;;8.20;99.90;;;;;;5071258;28;20043;-76
2023/01/05 07:35:48;;;;;;;48.13;27.15;;;9.10;99.90;;;;;;5069846;28;20075;-75
2023/01/05 07:38:52;;;;;;;47.38;27.98;;;9.10;99.90;;;;;;5070830;28;20055;-73
2023/01/05 07:41:56;;;;;;;45.15;28.15;;;9.70;99.90;;;;;;5070831;28;20039;-72
2023/01/05 07:45:03;;;;;;;41.88;26.25;;;9.80;99.90;;;;;;5070046;28;20400;-78
2023/01/05 07:48:07;;;;;;;45.80;27.00;;;11.00;99.90;;;;;;5070938;28;20043;-74
2023/01/05 07:51:11;;;;;;;42.08;26.10;;;9.40;99.90;;;;;;5070138;28;20067;-73
2023/01/05 07:54:16;;;;;;;47.20;25.83;;;;;;;;;;5070528;28;20052;-70
2023/01/05 07:57:20;;;;;;;43.50;24.17;;;8.90;99.90;;;;;;5070850;28;20047;-75
2023/01/05 08:00:24;;;;;;;41.85;24.55;;;;;;;;;;5070572;28;20040;-76
2023/01/05 08:03:28;;;;;;;40.78;23.85;;;;;;;;;;5070626;28;20047;-75
2023/01/05 08:06:33;;;;;;;38.25;24.17;;;10.60;99.90;;;;;;5070872;28;20043;-74
2023/01/05 08:16:29;;;;;;;48.38;25.40;;;11.00;99.90;;;;;;5070013;28;20657;-78
2023/01/05 08:19:33;;;;;;;43.63;25.80;;;11.30;99.90;;;;;;5070876;28;20044;-75
2023/01/05 08:22:37;;;;;;;45.05;25.73;;;;;;;;;;5070368;28;20043;-73
2023/01/05 08:25:41;;;;;;;47.40;26.15;;;11.70;99.90;;;;;;5070152;28;20052;-75
2023/01/05 08:28:45;;;;;;;38.72;25.85;;;;;;;;;;5070935;28;20060;-75
2023/01/05 08:31:50;;;;;;;65.38;29.27;;;;;;;;;;5070219;28;20040;-76
2023/01/05 08:34:54;;;;;;;43.72;27.63;;;;;;;;;;5070290;28;20404;-75
2023/01/05 08:37:58;;;;;;;40.90;25.90;;;10.10;99.90;;;;;;5069113;28;20069;-73
2023/01/05 08:41:03;;;;;;;38.13;25.85;;;;;;;;;;5070409;28;20158;-75
2023/01/05 08:44:10;;;;;;;39.08;27.15;;;13.10;99.90;;;;;;5069278;28;20052;-73
2023/01/05 08:47:15;;;;;;;37.83;26.20;;;8.50;99.90;;;;;;5069989;28;20043;-75
2023/01/05 08:50:19;;;;;;;49.53;25.95;;;12.50;99.90;;;;;;5070039;28;20050;-71
2023/01/05 08:53:23;;;;;;;35.70;22.30;;;12.50;99.90;;;;;;5070713;28;20090;-72
2023/01/05 08:56:27;;;;;;;31.38;19.50;;;12.60;99.90;;;;;;5069066;28;20056;-74
2023/01/05 08:59:31;;;;;;;34.03;19.25;;;10.10;99.90;;;;;;5070864;28;20043;-74
2023/01/05 09:02:35;;;;;;;27.23;18.70;;;12.60;99.90;;;;;;5073054;28;20048;-75
2023/01/05 09:05:39;;;;;;;33.38;20.25;;;;;;;;;;5074691;28;20554;-76
2023/01/05 09:08:44;;;;;;;34.92;21.77;;;13.40;99.90;;;;;;5073708;28;20051;-76
2023/01/05 09:11:48;;;;;;;26.55;19.08;;;13.50;99.90;;;;;;5072585;28;20047;-76
2023/01/05 09:14:53;;;;;;;31.80;19.52;;;13.50;99.90;;;;;;5073595;28;20044;-77
2023/01/05 09:17:57;;;;;;;27.50;18.05;;;13.50;99.90;;;;;;5073583;28;20047;-76
2023/01/05 09:21:01;;;;;;;25.75;18.00;;;14.20;99.90;;;;;;5073609;28;20039;-74
2023/01/05 09:24:07;;;;;;;28.58;18.65;;;13.60;99.90;;;;;;5073630;28;20043;-76
2023/01/05 09:27:11;;;;;;;26.50;18.50;;;13.60;99.90;;;;;;5072959;28;20058;-76
2023/01/05 09:30:16;;;;;;;30.38;20.02;;;13.80;99.90;;;;;;5073001;28;20055;-77
2023/01/05 09:33:20;;;;;;;28.52;19.52;;;13.80;99.90;;;;;;5083898;28;20404;-77
2023/01/05 09:36:24;;;;;;;27.77;20.05;;;13.90;99.90;;;;;;5072929;28;20499;-76
2023/01/05 09:39:28;;;;;;;29.55;19.40;;;13.90;99.90;;;;;;5072188;28;20052;-76
2023/01/05 09:42:35;;;;;;;28.40;20.83;;;13.90;99.90;;;;;;5083957;28;20055;-76
2023/01/05 09:45:39;;;;;;;31.75;21.95;;;14.00;99.90;;;;;;5073069;28;20051;-74
2023/01/05 09:48:49;;;;;;;42.85;27.10;;;14.10;99.90;;;;;;5072794;28;20408;-74
2023/01/05 09:52:08;;;;;;;37.20;24.23;;;14.20;99.90;;;;;;5072828;28;20083;-75
2023/01/05 09:55:16;;;;;;;50.53;27.00;;;14.40;99.90;;;;;;5072574;28;20044;-74
2023/01/05 09:58:27;;;;;;;44.45;28.10;;;14.60;99.90;;;;;;5072523;28;20055;-74
2023/01/05 10:01:32;;;;;;;;;;;14.80;99.90;;;;;;5072978;28;20055;-76
2023/01/05 10:04:36;;;;;;;45.60;27.58;;;15.00;99.90;;;;;;5072450;28;19909;-77
2023/01/05 10:07:46;;;;;;;48.78;29.50;;;15.20;99.90;;;;;;5060028;28;20392;-74
2023/01/05 10:14:51;;;;;;;48.22;29.75;;;15.60;99.90;;;;;;5071649;28;20046;-74
2023/01/05 10:17:55;;;;;;;48.10;30.98;;;15.70;99.90;;;;;;5069950;28;20063;-73
2023/01/05 10:21:22;;;;;;;48.95;32.22;;;15.90;99.90;;;;;;5072394;28;20043;-73
2023/01/05 10:24:48;;;;;;;52.13;32.83;;;16.10;99.90;;;;;;5072004;28;20056;-76
2023/01/05 10:28:17;;;;;;;50.33;33.67;;;16.20;99.90;;;;;;5072560;28;20507;-74
2023/01/05 10:31:52;;;;;;;52.03;34.22;;;16.30;99.90;;;;;;5071650;28;20059;-75
2023/01/05 10:35:16;;;;;;;51.63;34.35;;;16.50;99.90;;;;;;5066292;28;20052;-72
2023/01/05 10:39:05;;;;;;;49.15;32.22;;;16.60;99.90;;;;;;5071855;28;20052;-73
2023/01/05 10:42:55;;;;;;;50.67;32.20;;;16.60;99.90;;;;;;5067224;28;20044;-75
2023/01/05 10:46:01;;;;;;;45.38;30.77;;;16.70;99.90;;;;;;5050153;28;20052;-74
2023/01/05 10:49:06;;;;;;;46.33;31.92;;;16.70;99.90;;;;;;5071012;28;20047;-71
2023/01/05 10:52:16;;;;;;;55.78;33.67;;;16.70;99.90;;;;;;5071937;28;20055;-72
2023/01/05 10:55:22;;;;;;;38.95;27.67;;;16.50;99.90;;;;;;5071326;28;20044;-71
2023/01/05 10:58:35;;;;;;;40.38;28.40;;;16.40;99.90;;;;;;5071328;28;20055;-74
2023/01/05 11:01:44;;;;;;;43.45;29.23;;;16.40;99.90;;;;;;5071875;28;20035;-78
2023/01/05 11:04:49;;;;;;;48.45;27.80;;;16.60;99.90;;;;;;5071333;28;20598;-76
2023/01/05 11:07:57;;;;;;;34.22;25.05;;;16.70;99.90;;;;;;5071415;28;20048;-78
2023/01/05 11:11:06;;;;;;;31.50;23.42;;;16.80;99.90;;;;;;5071749;28;20040;-74
2023/01/05 11:14:15;;;;;;;33.90;23.55;;;17.00;99.90;;;;;;5070904;28;20055;-74
2023/01/05 11:17:22;;;;;;;40.80;26.42;;;17.10;99.90;;;;;;5071132;28;20055;-74
2023/01/05 11:20:28;;;;;;;39.30;26.67;;;17.10;99.90;;;;;;5071142;28;20396;-71
2023/01/05 11:23:56;;;;;;;35.10;25.45;;;17.00;99.90;;;;;;5071378;28;20047;-73
2023/01/05 11:27:04;;;;;;;39.28;27.33;;;17.00;99.90;;;;;;5070430;28;20513;-73
2023/01/05 11:30:14;;;;;;;41.20;26.52;;;17.00;99.90;;;;;;5070847;28;20043;-74
2023/01/05 11:33:25;;;;;;;42.35;26.05;;;17.00;99.90;;;;;;5070832;28;20051;-71
2023/01/05 11:36:29;;;;;;;36.28;25.75;;;17.00;99.90;;;;;;5070965;28;20404;-71
2023/01/05 11:39:55;;;;;;;43.50;28.30;;;17.00;99.90;;;;;;5070515;28;20052;-73
2023/01/05 11:42:59;;;;;;;39.72;26.77;;;17.00;99.90;;;;;;5070694;28;20043;-79
2023/01/05 11:46:04;;;;;;;36.38;25.35;;;16.90;99.90;;;;;;5070861;28;20043;-73
2023/01/05 11:49:09;;;;;;;37.17;24.38;;;17.00;99.90;;;;;;5070701;28;20059;-70
2023/01/05 11:52:34;;;;;;;46.50;27.88;;;17.00;99.90;;;;;;5070687;28;20396;-72
2023/01/05 11:55:38;;;;;;;37.97;24.17;;;17.00;99.90;;;;;;5070602;28;20186;-69
2023/01/05 11:58:45;;;;;;;38.92;24.52;;;16.90;99.90;;;;;;5070790;28;20044;-70
2023/01/05 12:01:52;;;;;;;33.42;23.55;;;16.90;99.90;;;;;;5070272;28;20202;-70
2023/01/05 12:05:02;;;;;;;37.63;25.42;;;16.90;99.90;;;;;;5070199;28;20060;-70
2023/01/05 12:08:26;;;;;;;33.37;23.03;;;16.80;99.90;;;;;;5070145;28;20047;-69
2023/01/05 12:11:49;;;;;;;33.20;23.20;;;16.70;99.90;;;;;;5070384;28;20055;-71
2023/01/05 12:14:59;;;;;;;39.35;28.15;;;16.70;99.90;;;;;;5069987;28;20048;-70
2023/01/05 12:18:19;;;;;;;36.70;24.90;;;16.60;99.90;;;;;;5070751;28;20047;-70
2023/01/05 12:21:27;;;;;;;31.52;23.23;;;16.50;99.90;;;;;;5070367;28;20051;-69
2023/01/05 12:24:40;;;;;;;31.33;23.42;;;16.40;99.90;;;;;;5070485;28;20051;-69
2023/01/05 12:27:50;;;;;;;44.35;27.67;;;16.30;99.90;;;;;;5070222;28;20044;-71
2023/01/05 12:31:18;;;;;;;32.60;23.77;;;16.30;99.90;;;;;;5070206;28;20048;-72
2023/01/05 12:34:28;;;;;;;27.33;20.05;;;16.20;99.90;;;;;;5070326;28;20044;-71
2023/01/05 12:37:32;;;;;;;28.10;19.73;;;16.20;99.90;;;;;;5072240;28;20052;-72
2023/01/05 12:40:41;;;;;;;32.50;23.00;;;16.20;99.90;;;;;;5074142;28;20510;-70
2023/01/05 12:43:54;;;;;;;32.08;23.27;;;16.20;99.90;;;;;;5074142;28;20056;-70
2023/01/05 12:47:13;;;;;;;25.45;19.23;;;16.10;99.90;;;;;;5074352;28;20048;-70
2023/01/05 12:50:46;;;;;;;46.83;28.85;;;16.20;99.90;;;;;;5074027;28;20601;-70
2023/01/05 12:53:50;;;;;;;33.60;23.70;;;16.20;99.90;;;;;;5073789;28;20043;-70
2023/01/05 12:57:02;;;;;;;27.35;20.45;;;16.20;99.90;;;;;;5073711;28;20059;-71
2023/01/05 13:00:10;;;;;;;25.55;18.70;;;16.20;99.90;;;;;;5072763;28;20052;-71
2023/01/05 13:03:22;;;;;;;39.42;25.27;;;16.20;99.90;;;;;;5074049;28;20044;-71
2023/01/05 13:06:33;;;;;;;30.35;21.38;;;16.20;99.90;;;;;;5073718;28;20059;-71
2023/01/05 13:09:38;;;;;;;25.73;19.17;;;16.20;99.90;;;;;;5073708;28;20388;-71
2023/01/05 13:12:42;;;;;;;31.52;22.50;;;16.20;99.90;;;;;;5073594;28;20035;-71
2023/01/05 13:16:28;;;;;;;38.22;26.50;;;16.20;99.90;;;;;;5073385;28;20036;-71
2023/01/05 13:19:47;;;;;;;36.05;22.88;;;16.20;99.90;;;;;;5073529;28;20067;-72
2023/01/05 13:22:58;;;;;;;31.65;22.20;;;16.20;99.90;;;;;;5073074;28;20036;-73
2023/01/05 13:26:06;;;;;;;23.85;18.50;;;16.20;99.90;;;;;;5073077;28;20063;-73
2023/01/05 13:29:37;;;;;;;30.02;20.58;;;16.30;99.90;;;;;;5073472;28;20063;-73
2023/01/05 13:32:55;;;;;;;45.77;26.30;;;16.30;99.90;;;;;;5060835;28;20389;-74
2023/01/05 13:36:09;;;;;;;34.92;22.33;;;16.40;99.90;;;;;;5061064;28;20052;-72
2023/01/05 13:39:17;;;;;;;25.30;18.95;;;16.40;99.90;;;;;;5071144;28;20051;-73
2023/01/05 13:42:40;;;;;;;32.22;20.50;;;16.40;99.90;;;;;;5072222;28;20063;-73
2023/01/05 13:46:15;;;;;;;34.08;21.20;;;16.50;99.90;;;;;;5072839;28;20043;-73
2023/01/05 13:49:56;;;;;;;29.42;18.88;;;16.40;99.90;;;;;;5070809;28;20067;-73
2023/01/05 13:53:11;;;;;;;25.02;18.08;;;16.40;99.90;;;;;;5073557;28;20040;-74
2023/01/05 13:56:27;;;;;;;29.88;19.08;;;16.40;99.90;;;;;;5072478;28;20593;-73
2023/01/05 13:59:34;;;;;;;26.33;18.17;;;16.30;99.90;;;;;;5071721;28;20388;-73
2023/01/05 14:02:55;;;;;;;28.95;18.75;;;16.30;99.90;;;;;;5071011;28;20051;-71
2023/01/05 14:06:05;;;;;;;27.65;18.33;;;16.30;99.90;;;;;;5070671;28;20444;-72
2023/01/05 14:09:36;;;;;;;24.70;17.70;;;16.30;99.90;;;;;;5071504;28;20035;-70
2023/01/05 14:12:42;;;;;;;28.05;18.58;;;16.30;99.90;;;;;;5072746;28;20043;-71
2023/01/05 14:15:46;;;;;;;22.98;16.85;;;16.30;99.90;;;;;;5072248;28;20191;-71
2023/01/05 14:18:51;;;;;;;28.70;17.85;;;16.20;99.90;;;;;;5071232;28;20048;-72
2023/01/05 14:21:59;;;;;;;18.55;13.95;;;16.20;99.90;;;;;;5072136;28;20047;-71
2023/01/05 14:25:37;;;;;;;16.35;12.25;;;16.10;99.90;;;;;;5071901;28;20047;-70
2023/01/05 14:28:44;;;;;;;18.45;12.50;;;16.10;99.90;;;;;;5072193;28;20428;-70
2023/01/05 14:31:49;;;;;;;16.73;11.75;;;16.00;99.90;;;;;;5072051;28;20047;-71
2023/01/05 14:35:13;;;;;;;24.35;15.27;;;16.00;99.90;;;;;;5071731;28;20035;-69
2023/01/05 14:38:22;;;;;;;22.83;15.15;;;16.00;99.90;;;;;;5072050;28;20507;-72
2023/01/05 14:41:29;;;;;;;25.02;16.02;;;15.90;99.90;;;;;;5070898;28;20400;-72
2023/01/05 14:44:45;;;;;;;30.75;17.40;;;15.90;99.90;;;;;;5071839;28;20396;-72
2023/01/05 14:47:54;;;;;;;35.33;17.13;;;15.80;99.90;;;;;;5070759;28;20047;-72
2023/01/05 14:51:25;;;;;;;31.33;17.27;;;15.80;99.90;;;;;;5071750;28;20040;-72
2023/01/05 14:54:57;;;;;;;27.95;17.58;;;15.80;99.90;;;;;;5071679;28;20040;-73
2023/01/05 14:58:34;;;;;;;34.83;21.45;;;15.70;99.90;;;;;;5073621;28;20055;-73
2023/01/05 15:02:01;;;;;;;28.90;19.55;;;15.70;99.90;;;;;;5071433;28;20048;-73
2023/01/05 15:05:12;;;;;;;30.05;19.63;;;15.70;99.90;;;;;;5071230;28;20040;-72
2023/01/05 15:08:38;;;;;;;31.90;19.60;;;15.60;99.90;;;;;;5071397;28;20043;-73
2023/01/05 15:12:02;;;;;;;35.67;22.10;;;15.60;99.90;;;;;;5071241;28;20044;-73
2023/01/05 15:15:24;;;;;;;29.98;20.98;;;15.50;99.90;;;;;;5071191;28;20047;-73
2023/01/05 15:19:05;;;;;;;31.92;20.65;;;15.50;99.90;;;;;;5070871;28;20051;-73
2023/01/05 15:22:37;;;;;;;32.20;20.45;;;15.50;99.90;;;;;;5070812;28;20048;-72
2023/01/05 15:26:07;;;;;;;31.27;20.33;;;15.40;99.90;;;;;;5070517;28;20052;-71
2023/01/05 15:29:58;;;;;;;41.50;21.60;;;15.30;99.90;;;;;;5071027;28;20048;-72
2023/01/05 15:33:56;;;;;;;35.47;23.23;;;15.30;99.90;;;;;;5056824;28;20056;-72
2023/01/05 15:37:22;;;;;;;37.42;23.40;;;15.30;99.90;;;;;;5070200;28;20067;-73
2023/01/05 15:40:29;;;;;;;43.75;24.88;;;15.30;99.90;;;;;;5069479;28;20048;-72
2023/01/05 15:43:36;;;;;;;37.60;25.13;;;15.20;99.90;;;;;;5070713;28;20047;-72
2023/01/05 15:46:41;;;;;;;41.80;28.15;;;15.20;99.90;;;;;;5070547;28;20040;-72
2023/01/05 15:49:47;;;;;;;47.00;29.80;;;15.10;99.90;;;;;;5069958;28;20044;-71
2023/01/05 15:53:00;;;;;;;45.03;28.73;;;15.10;99.90;;;;;;5071071;28;20048;-73
2023/01/05 15:56:06;;;;;;;50.50;28.52;;;15.10;99.90;;;;;;5070561;28;20043;-73
2023/01/05 15:59:36;;;;;;;48.25;27.63;;;15.10;99.90;;;;;;5071105;28;20048;-73
2023/01/05 16:02:40;;;;;;;48.00;26.02;;;15.00;99.90;;;;;;5070941;28;20040;-73
2023/01/05 16:05:44;;;;;;;37.83;25.40;;;15.00;99.90;;;;;;5070479;28;20053;-73
2023/01/05 16:08:51;;;;;;;55.63;27.90;;;14.90;99.90;;;;;;5070450;28;20044;-73
2023/01/05 16:12:10;;;;;;;45.08;27.27;;;14.90;99.90;;;;;;5071217;28;20047;-72
2023/01/05 16:15:20;;;;;;;57.25;30.27;;;14.90;99.90;;;;;;5074100;28;20039;-73
2023/01/05 16:18:36;;;;;;;46.25;28.58;;;14.90;99.90;;;;;;5074156;28;20051;-73
2023/01/05 16:21:59;;;;;;;45.42;26.27;;;15.00;99.90;;;;;;5073087;28;20238;-73
2023/01/05 16:25:16;;;;;;;48.47;27.13;;;14.90;99.90;;;;;;5074308;28;20107;-71
2023/01/05 16:28:22;;;;;;;42.28;26.38;;;14.90;99.90;;;;;;5074534;28;20059;-73
2023/01/05 16:31:32;;;;;;;55.72;27.45;;;14.80;99.90;;;;;;5074092;28;20051;-75
2023/01/05 16:34:36;;;;;;;45.40;26.33;;;14.80;99.90;;;;;;5074756;28;20052;-72
2023/01/05 16:37:40;;;;;;;44.08;25.08;;;14.80;99.90;;;;;;5074041;28;20051;-75
2023/01/05 16:40:44;;;;;;;47.67;25.30;;;14.80;99.90;;;;;;5074152;28;20060;-73
2023/01/05 16:43:58;;;;;;;46.75;26.25;;;14.80;99.90;;;;;;5073702;28;20055;-73
2023/01/05 16:47:06;;;;;;;46.20;25.50;;;14.80;99.90;;;;;;5073839;28;20047;-72
2023/01/05 16:50:16;;;;;;;46.17;25.02;;;14.80;99.90;;;;;;5073760;28;20067;-71
2023/01/05 16:53:20;;;;;;;52.42;26.27;;;14.70;99.90;;;;;;5073623;28;20047;-74
2023/01/05 16:56:31;;;;;;;44.88;26.27;;;14.70;99.90;;;;;;5073919;28;20047;-69
2023/01/05 16:59:38;;;;;;;50.50;27.33;;;14.70;99.90;;;;;;5073736;28;20052;-71
2023/01/05 17:02:47;;;;;;;53.63;30.98;;;14.70;99.90;;;;;;5073571;28;20395;-72
2023/01/05 17:05:53;;;;;;;44.78;27.75;;;14.80;99.90;;;;;;5073971;28;20044;-72